Time;durP1;ratioP1;P1;durP2;ratioP2;P2;SDS_P1;SDS_P2;PMS_P1;PMS_P2;Temp;Humidity;BMP_temperature;BMP_pressure;BME280_temperature;BME280_humidity;BME280_pressure;Samples;Min_cycle;Max_cycle;Signal;HPM_P1;HPM_P2
2023/08/01 00:01:36;;;;;;;0.63;0.63;;;16.10;99.90;;;;;;5096756;27;20092;-66
2023/08/01 00:04:02;;;;;;;0.40;0.40;;;16.10;99.90;;;;;;5107807;27;20028;-65
2023/08/01 00:06:27;;;;;;;0.40;0.40;;;16.10;99.90;;;;;;5102343;27;20047;-66
2023/08/01 00:08:53;;;;;;;1.05;1.05;;;16.20;99.90;;;;;;5104285;27;20439;-67
2023/08/01 00:11:19;;;;;;;0.28;0.20;;;16.20;99.90;;;;;;5107639;27;20036;-67
2023/08/01 00:13:44;;;;;;;0.73;0.45;;;16.20;99.90;;;;;;5089168;27;20145;-67
2023/08/01 00:16:16;;;;;;;0.20;0.20;;;16.10;99.90;;;;;;5103059;27;20398;-67
2023/08/01 00:18:41;;;;;;;0.30;0.20;;;16.10;99.90;;;;;;5096054;27;20035;-67
2023/08/01 00:21:10;;;;;;;0.20;0.20;;;16.10;99.90;;;;;;5106244;27;20384;-68
2023/08/01 00:23:35;;;;;;;0.38;0.38;;;16.10;99.90;;;;;;5106611;27;20057;-67
2023/08/01 00:26:01;;;;;;;0.20;0.13;;;16.00;99.90;;;;;;5104617;27;20031;-68
2023/08/01 00:28:27;;;;;;;0.22;0.22;;;16.00;99.90;;;;;;5108588;27;20050;-67
2023/08/01 00:31:05;;;;;;;0.20;0.20;;;16.00;99.90;;;;;;5098186;27;20039;-67
2023/08/01 00:33:31;;;;;;;1.17;0.30;;;16.00;99.90;;;;;;5100112;27;20071;-67
2023/08/01 00:35:56;;;;;;;0.25;0.20;;;16.00;99.90;;;;;;5098440;28;20071;-68
2023/08/01 00:38:22;;;;;;;0.22;0.17;;;16.10;99.90;;;;;;5103746;28;20131;-67
2023/08/01 00:40:47;;;;;;;0.30;0.15;;;16.00;99.90;;;;;;5106597;28;20031;-67
2023/08/01 00:43:13;;;;;;;0.75;0.38;;;16.00;99.90;;;;;;5105070;28;20035;-68
2023/08/01 00:45:39;;;;;;;2.28;0.30;;;16.00;99.90;;;;;;5105094;28;20035;-67
2023/08/01 00:48:05;;;;;;;0.13;0.13;;;16.00;99.90;;;;;;5101652;27;20047;-67
2023/08/01 00:50:31;;;;;;;1.95;0.60;;;16.00;99.90;;;;;;5111035;27;20046;-68
2023/08/01 00:52:57;;;;;;;2.00;0.38;;;16.00;99.90;;;;;;5108854;27;20036;-68
2023/08/01 00:55:23;;;;;;;1.17;0.50;;;16.00;99.90;;;;;;5109974;27;20038;-66
2023/08/01 00:57:48;;;;;;;1.48;0.68;;;15.90;99.90;;;;;;5100538;28;20059;-67
2023/08/01 01:00:14;;;;;;;0.17;0.13;;;15.90;99.90;;;;;;5103836;27;20027;-68
2023/08/01 01:02:40;;;;;;;0.70;0.70;;;15.90;99.90;;;;;;5107949;27;20073;-68
2023/08/01 01:05:06;;;;;;;0.40;0.30;;;15.90;99.90;;;;;;5100934;28;20122;-66
2023/08/01 01:07:43;;;;;;;2.33;0.73;;;15.90;99.90;;;;;;5107349;27;20467;-67
2023/08/01 01:10:09;;;;;;;0.47;0.30;;;15.80;99.90;;;;;;5100455;27;20047;-67
2023/08/01 01:12:35;;;;;;;0.70;0.70;;;15.90;99.90;;;;;;5121391;27;20596;-67
2023/08/01 01:15:01;;;;;;;0.20;0.20;;;15.80;99.90;;;;;;5101484;27;20112;-66
2023/08/01 01:17:26;;;;;;;0.30;0.30;;;15.80;99.90;;;;;;5103647;27;20110;-66
2023/08/01 01:19:54;;;;;;;0.60;0.57;;;15.80;99.90;;;;;;5134539;27;20039;-66
2023/08/01 01:22:19;;;;;;;0.57;0.35;;;15.70;99.90;;;;;;5085435;27;20062;-66
2023/08/01 01:24:46;;;;;;;0.47;0.30;;;15.70;99.90;;;;;;5096798;28;20036;-66
2023/08/01 01:27:12;;;;;;;1.50;0.70;;;15.80;99.90;;;;;;5120271;27;20727;-67
2023/08/01 01:29:40;;;;;;;0.30;0.30;;;15.80;99.90;;;;;;5100123;27;20386;-66
2023/08/01 01:32:07;;;;;;;0.77;0.65;;;15.70;99.90;;;;;;5120519;27;20047;-66
2023/08/01 01:34:33;;;;;;;0.93;0.88;;;15.70;99.90;;;;;;5106497;27;20043;-66
2023/08/01 01:36:58;;;;;;;1.30;1.20;;;15.70;99.90;;;;;;5107170;27;20054;-66
2023/08/01 01:39:24;;;;;;;1.52;1.25;;;15.60;99.90;;;;;;5104286;27;20031;-66
2023/08/01 01:41:50;;;;;;;0.10;0.10;;;15.50;99.90;;;;;;5108249;27;20038;-66
2023/08/01 01:44:15;;;;;;;0.65;0.45;;;15.50;99.90;;;;;;5102777;27;20091;-66
2023/08/01 01:46:41;;;;;;;6.03;0.30;;;15.50;99.90;;;;;;5107633;27;20039;-67
2023/08/01 01:49:06;;;;;;;4.35;0.40;;;15.40;99.90;;;;;;5105551;27;20039;-66
2023/08/01 01:51:32;;;;;;;0.20;0.20;;;15.40;99.90;;;;;;5103379;27;20138;-66
2023/08/01 01:53:57;;;;;;;0.75;0.63;;;15.50;99.90;;;;;;5085266;27;20038;-66
2023/08/01 01:56:23;;;;;;;4.18;0.40;;;15.40;99.90;;;;;;5109082;27;20117;-67
2023/08/01 01:58:49;;;;;;;0.40;0.40;;;15.50;99.90;;;;;;5105375;27;20035;-66
2023/08/01 02:01:14;;;;;;;0.65;0.60;;;15.40;99.90;;;;;;5104302;27;20402;-66
2023/08/01 02:03:40;;;;;;;0.52;0.30;;;15.50;99.90;;;;;;5110275;27;20066;-67
2023/08/01 02:06:05;;;;;;;0.65;0.40;;;15.50;99.90;;;;;;5118323;27;20081;-65
2023/08/01 02:08:31;;;;;;;0.40;0.40;;;15.50;99.90;;;;;;5113077;27;20084;-66
2023/08/01 02:10:58;;;;;;;0.65;0.25;;;15.40;99.90;;;;;;5115891;27;20031;-67
2023/08/01 02:13:29;;;;;;;0.38;0.38;;;15.50;99.90;;;;;;5107429;27;20953;-66
2023/08/01 02:15:55;;;;;;;0.15;0.15;;;15.50;99.90;;;;;;5100429;27;20088;-66
2023/08/01 02:18:20;;;;;;;0.25;0.22;;;15.40;99.90;;;;;;5106355;27;20297;-66
2023/08/01 02:20:46;;;;;;;0.60;0.55;;;15.40;99.90;;;;;;5101165;27;20443;-65
2023/08/01 02:23:12;;;;;;;0.85;0.65;;;15.40;99.90;;;;;;5104827;27;20065;-65
2023/08/01 02:25:42;;;;;;;1.70;0.40;;;15.30;99.90;;;;;;5099036;27;20508;-67
2023/08/01 02:28:08;;;;;;;0.32;0.30;;;15.30;99.90;;;;;;5103559;27;20027;-66
2023/08/01 02:30:37;;;;;;;0.30;0.30;;;15.30;99.90;;;;;;5133414;27;20435;-65
2023/08/01 02:33:02;;;;;;;2.00;0.35;;;15.30;99.90;;;;;;5113879;27;20046;-66
2023/08/01 02:35:29;;;;;;;2.40;0.47;;;15.30;99.90;;;;;;5108414;27;20039;-65
2023/08/01 02:37:55;;;;;;;0.25;0.10;;;15.30;99.90;;;;;;5132984;27;20089;-67
2023/08/01 02:40:21;;;;;;;10.07;1.00;;;15.30;99.90;;;;;;5101870;27;20198;-65
2023/08/01 02:42:46;;;;;;;0.47;0.28;;;15.20;99.90;;;;;;5102448;27;20118;-66
2023/08/01 02:45:12;;;;;;;0.10;0.10;;;15.30;99.90;;;;;;5107218;27;20043;-66
2023/08/01 02:47:38;;;;;;;0.40;0.30;;;15.20;99.90;;;;;;5109980;27;20540;-66
2023/08/01 02:50:04;;;;;;;0.32;0.32;;;15.20;99.90;;;;;;5105534;27;20382;-66
2023/08/01 02:52:30;;;;;;;1.85;0.90;;;15.10;99.90;;;;;;5101423;27;20050;-66
2023/08/01 02:54:55;;;;;;;0.22;0.22;;;15.10;99.90;;;;;;5112396;27;20040;-65
2023/08/01 02:57:21;;;;;;;3.20;1.45;;;15.10;99.90;;;;;;5108753;27;20081;-66
2023/08/01 02:59:47;;;;;;;0.75;0.55;;;15.00;99.90;;;;;;5106031;27;20039;-66
2023/08/01 03:02:12;;;;;;;0.45;0.40;;;15.00;99.90;;;;;;5140935;27;20051;-66
2023/08/01 03:04:38;;;;;;;0.32;0.32;;;15.00;99.90;;;;;;5119478;27;20067;-66
2023/08/01 03:07:04;;;;;;;0.80;0.63;;;15.00;99.90;;;;;;5106792;27;20999;-66
2023/08/01 03:09:29;;;;;;;0.00;0.00;;;14.90;99.90;;;;;;5111724;27;20039;-66
2023/08/01 03:11:55;;;;;;;0.80;0.43;;;14.90;99.90;;;;;;5102734;27;20127;-66
2023/08/01 03:14:20;;;;;;;0.35;0.20;;;15.00;99.90;;;;;;5106428;27;20047;-66
2023/08/01 03:16:46;;;;;;;0.13;0.13;;;15.00;99.90;;;;;;5112876;27;20325;-66
2023/08/01 03:19:11;;;;;;;0.10;0.10;;;15.00;99.90;;;;;;5101208;27;20507;-66
2023/08/01 03:21:37;;;;;;;0.90;0.90;;;15.00;99.90;;;;;;5136200;27;20039;-66
2023/08/01 03:24:04;;;;;;;0.63;0.63;;;15.00;99.90;;;;;;5103689;27;20031;-75
2023/08/01 03:26:29;;;;;;;0.30;0.30;;;15.10;99.90;;;;;;5105181;27;20434;-71
2023/08/01 03:28:56;;;;;;;0.10;0.10;;;15.10;99.90;;;;;;5132400;27;20039;-71
2023/08/01 03:31:24;;;;;;;0.70;0.10;;;14.90;99.90;;;;;;5135398;27;20091;-70
2023/08/01 03:33:52;;;;;;;0.00;0.00;;;14.70;99.90;;;;;;5109041;27;20046;-69
2023/08/01 03:36:17;;;;;;;0.17;0.17;;;14.60;99.90;;;;;;5108453;28;20090;-68
2023/08/01 03:38:43;;;;;;;0.10;0.10;;;14.40;99.90;;;;;;5129684;27;20066;-67
2023/08/01 03:41:09;;;;;;;0.20;0.20;;;14.30;99.90;;;;;;5141884;27;20035;-67
2023/08/01 03:43:34;;;;;;;0.00;0.00;;;14.30;99.90;;;;;;5108521;27;20046;-68
2023/08/01 03:46:00;;;;;;;0.00;0.00;;;14.20;99.90;;;;;;5102660;27;20035;-67
2023/08/01 03:48:26;;;;;;;4.70;2.35;;;14.20;99.90;;;;;;5117407;27;20062;-68
2023/08/01 03:50:51;;;;;;;0.08;0.08;;;14.10;99.90;;;;;;5095369;28;20046;-68
2023/08/01 03:53:17;;;;;;;0.20;0.20;;;14.20;99.90;;;;;;5134022;27;20046;-69
2023/08/01 03:55:44;;;;;;;0.63;0.63;;;14.10;99.90;;;;;;5100493;27;20100;-68
2023/08/01 03:58:10;;;;;;;0.10;0.10;;;14.20;99.90;;;;;;5102332;28;20027;-68
2023/08/01 04:00:35;;;;;;;0.00;0.00;;;14.10;99.90;;;;;;5118893;27;20047;-68
2023/08/01 04:03:01;;;;;;;0.00;0.00;;;14.10;99.90;;;;;;5097797;27;20560;-67
2023/08/01 04:05:27;;;;;;;0.10;0.10;;;14.10;99.90;;;;;;5109261;27;20034;-67
2023/08/01 04:07:56;;;;;;;0.08;0.08;;;14.10;99.90;;;;;;5129921;27;20139;-67
2023/08/01 04:10:23;;;;;;;1.52;0.10;;;14.20;99.90;;;;;;5102422;28;20138;-67
2023/08/01 04:12:49;;;;;;;0.10;0.10;;;14.10;99.90;;;;;;5110343;28;20454;-67
2023/08/01 04:15:15;;;;;;;0.00;0.00;;;14.20;99.90;;;;;;5132807;27;20451;-67
2023/08/01 04:17:41;;;;;;;0.10;0.10;;;14.20;99.90;;;;;;5100612;28;20040;-67
2023/08/01 04:20:07;;;;;;;2.92;0.45;;;14.30;99.90;;;;;;5114352;27;20042;-67
2023/08/01 04:22:43;;;;;;;0.05;0.05;;;14.30;99.90;;;;;;5112372;27;20123;-67
2023/08/01 04:25:09;;;;;;;0.10;0.10;;;14.20;99.90;;;;;;5106856;28;20488;-67
2023/08/01 04:27:34;;;;;;;0.20;0.20;;;14.20;99.90;;;;;;5131161;27;20042;-67
2023/08/01 04:30:00;;;;;;;0.00;0.00;;;14.20;99.90;;;;;;5110408;28;20038;-67
2023/08/01 04:32:26;;;;;;;0.10;0.10;;;14.20;99.90;;;;;;5104314;27;20046;-66
2023/08/01 04:34:51;;;;;;;0.10;0.10;;;14.30;99.90;;;;;;5102923;27;20046;-66
2023/08/01 04:37:20;;;;;;;0.00;0.00;;;14.30;99.90;;;;;;5105909;28;20100;-68
2023/08/01 04:39:46;;;;;;;0.00;0.00;;;14.40;99.90;;;;;;5095824;27;20042;-68
2023/08/01 04:42:11;;;;;;;0.30;0.30;;;14.50;99.90;;;;;;5102448;27;20509;-67
2023/08/01 04:44:37;;;;;;;0.25;0.25;;;14.40;99.90;;;;;;5114517;28;20043;-68
2023/08/01 04:47:02;;;;;;;0.05;0.05;;;14.50;99.90;;;;;;5115168;28;20039;-67
2023/08/01 04:49:28;;;;;;;0.10;0.10;;;14.60;99.90;;;;;;5107953;28;20047;-68
2023/08/01 04:51:55;;;;;;;0.00;0.00;;;14.60;99.90;;;;;;5148981;27;20035;-67
2023/08/01 04:54:21;;;;;;;0.47;0.47;;;14.60;99.90;;;;;;5108075;28;20054;-67
2023/08/01 04:56:46;;;;;;;0.43;0.43;;;14.70;99.90;;;;;;5124237;28;20046;-67
2023/08/01 04:59:12;;;;;;;2.05;0.38;;;14.70;99.90;;;;;;5115622;28;20088;-68
2023/08/01 05:01:37;;;;;;;0.10;0.10;;;14.80;99.90;;;;;;5112928;28;20121;-67
2023/08/01 05:04:03;;;;;;;0.40;0.30;;;14.70;99.90;;;;;;5115551;28;20043;-69
2023/08/01 05:06:29;;;;;;;0.55;0.17;;;14.80;99.90;;;;;;5116732;28;20039;-67
2023/08/01 05:08:55;;;;;;;0.65;0.25;;;14.90;99.90;;;;;;5132096;28;20067;-70
2023/08/01 05:11:21;;;;;;;0.63;0.17;;;14.80;99.90;;;;;;5116619;28;20046;-67
2023/08/01 05:13:47;;;;;;;0.10;0.10;;;14.90;99.90;;;;;;5094602;28;20485;-67
2023/08/01 05:16:12;;;;;;;1.27;0.30;;;14.90;99.90;;;;;;5117481;28;20107;-69
2023/08/01 05:18:38;;;;;;;0.10;0.10;;;14.90;99.90;;;;;;5101076;28;20490;-68
2023/08/01 05:21:03;;;;;;;0.52;0.32;;;14.90;99.90;;;;;;5123167;28;20115;-67
2023/08/01 05:23:29;;;;;;;0.10;0.10;;;14.80;99.90;;;;;;5092927;28;20028;-69
2023/08/01 05:25:55;;;;;;;0.25;0.10;;;14.80;99.90;;;;;;5098762;28;20042;-69
2023/08/01 05:28:20;;;;;;;0.30;0.30;;;14.80;99.90;;;;;;5104473;28;20042;-68
2023/08/01 05:30:47;;;;;;;0.00;0.00;;;14.80;99.90;;;;;;5099815;28;20443;-69
2023/08/01 05:33:12;;;;;;;0.10;0.10;;;14.70;99.90;;;;;;5099002;27;20088;-67
2023/08/01 05:35:38;;;;;;;0.10;0.10;;;14.70;99.90;;;;;;5118415;27;20035;-67
2023/08/01 05:38:04;;;;;;;0.25;0.25;;;14.70;99.90;;;;;;5112658;28;20478;-67
2023/08/01 05:40:29;;;;;;;0.10;0.10;;;14.60;99.90;;;;;;5112524;27;20035;-68
2023/08/01 05:42:55;;;;;;;0.17;0.17;;;14.60;99.90;;;;;;5129652;27;20106;-68
2023/08/01 05:45:20;;;;;;;0.13;0.13;;;14.70;99.90;;;;;;5109567;27;20039;-67
2023/08/01 05:47:46;;;;;;;0.10;0.10;;;14.60;99.90;;;;;;5098441;28;20482;-69
2023/08/01 05:50:12;;;;;;;0.10;0.10;;;14.70;99.90;;;;;;5112679;27;20043;-68
2023/08/01 05:52:37;;;;;;;0.20;0.20;;;14.60;99.90;;;;;;5118526;27;20075;-66
2023/08/01 05:55:13;;;;;;;0.30;0.30;;;14.60;99.90;;;;;;5115889;27;20389;-70
2023/08/01 05:57:38;;;;;;;0.03;0.03;;;14.60;99.90;;;;;;5114234;28;20505;-67
2023/08/01 06:00:04;;;;;;;0.00;0.00;;;14.60;99.90;;;;;;5098717;28;20036;-68
2023/08/01 06:02:30;;;;;;;0.17;0.17;;;14.70;99.90;;;;;;5132684;27;20550;-68
2023/08/01 06:04:55;;;;;;;0.10;0.10;;;14.70;99.90;;;;;;5129898;27;20073;-68
2023/08/01 06:07:22;;;;;;;0.30;0.30;;;14.80;99.90;;;;;;5119408;27;20038;-67
2023/08/01 06:09:52;;;;;;;0.20;0.20;;;14.80;99.90;;;;;;5112465;28;20760;-67
2023/08/01 06:12:19;;;;;;;0.20;0.20;;;14.80;99.90;;;;;;5103457;27;20497;-68
2023/08/01 06:14:45;;;;;;;0.43;0.43;;;14.90;99.90;;;;;;5124952;27;20397;-68
2023/08/01 06:17:28;;;;;;;0.20;0.17;;;15.00;99.90;;;;;;5118208;27;20043;-68
2023/08/01 06:19:54;;;;;;;0.15;0.15;;;15.00;99.90;;;;;;5117893;27;20027;-67
2023/08/01 06:22:20;;;;;;;0.13;0.13;;;15.00;99.90;;;;;;5108799;27;20119;-67
2023/08/01 06:24:45;;;;;;;1.42;0.85;;;15.10;99.90;;;;;;5118387;27;20177;-67
2023/08/01 06:27:11;;;;;;;11.30;0.50;;;15.00;99.90;;;;;;5104370;28;20497;-66
2023/08/01 06:29:37;;;;;;;0.20;0.20;;;15.00;99.90;;;;;;5132056;27;20547;-67
2023/08/01 06:32:03;;;;;;;0.10;0.10;;;15.10;99.90;;;;;;5097730;28;20408;-67
2023/08/01 06:34:29;;;;;;;0.10;0.10;;;15.00;99.90;;;;;;5097955;28;20036;-67
2023/08/01 06:36:54;;;;;;;0.63;0.13;;;15.10;99.90;;;;;;5114784;28;20047;-67
2023/08/01 06:39:20;;;;;;;0.20;0.10;;;15.00;99.90;;;;;;5111454;27;20043;-67
2023/08/01 06:41:46;;;;;;;0.10;0.10;;;15.00;99.90;;;;;;5118242;27;20080;-67
2023/08/01 06:44:11;;;;;;;0.10;0.10;;;15.10;99.90;;;;;;5117798;27;20122;-67
2023/08/01 06:46:37;;;;;;;0.00;0.00;;;15.00;99.90;;;;;;5117211;27;20505;-67
2023/08/01 06:49:02;;;;;;;0.10;0.10;;;15.10;99.90;;;;;;5117910;27;20431;-68
2023/08/01 06:51:29;;;;;;;7.38;0.80;;;15.00;99.90;;;;;;5099090;28;20043;-69
2023/08/01 06:53:54;;;;;;;0.10;0.10;;;15.10;99.90;;;;;;5123278;27;20039;-68
2023/08/01 06:56:20;;;;;;;0.28;0.28;;;15.10;99.90;;;;;;5099255;28;20046;-67
2023/08/01 06:58:46;;;;;;;0.10;0.10;;;15.30;99.90;;;;;;5143487;27;20046;-68
2023/08/01 07:01:12;;;;;;;0.65;0.65;;;15.40;99.90;;;;;;5117398;27;20043;-67
2023/08/01 07:03:37;;;;;;;0.05;0.05;;;15.40;99.90;;;;;;5117526;27;20046;-68
2023/08/01 07:06:03;;;;;;;0.00;0.00;;;15.50;99.90;;;;;;5136150;27;20067;-67
2023/08/01 07:08:28;;;;;;;0.00;0.00;;;15.50;99.90;;;;;;5117477;27;20041;-67
2023/08/01 07:10:54;;;;;;;0.10;0.10;;;15.50;99.90;;;;;;5125114;27;20110;-67
2023/08/01 07:13:20;;;;;;;0.65;0.38;;;15.60;99.90;;;;;;5117735;27;20034;-68
2023/08/01 07:15:45;;;;;;;0.10;0.10;;;15.80;99.90;;;;;;5099161;28;20206;-67
2023/08/01 07:18:11;;;;;;;0.20;0.20;;;15.90;99.90;;;;;;5130544;27;20595;-67
2023/08/01 07:20:36;;;;;;;2.22;0.40;;;15.90;99.90;;;;;;5112058;27;20114;-68
2023/08/01 07:23:07;;;;;;;0.00;0.00;;;15.90;99.90;;;;;;5125394;27;20473;-71
2023/08/01 07:25:33;;;;;;;0.10;0.10;;;16.10;99.90;;;;;;5114019;27;20046;-68
2023/08/01 07:27:58;;;;;;;1.08;0.47;;;16.20;99.90;;;;;;5115941;27;20553;-69
2023/08/01 07:30:24;;;;;;;1.08;0.20;;;16.20;99.90;;;;;;5113999;27;20051;-68
2023/08/01 07:32:49;;;;;;;0.15;0.15;;;16.20;99.90;;;;;;5127155;27;20447;-70
2023/08/01 07:35:15;;;;;;;0.08;0.08;;;16.20;99.90;;;;;;5115441;27;20051;-67
2023/08/01 07:37:41;;;;;;;0.35;0.20;;;16.20;99.90;;;;;;5112198;28;20036;-67
2023/08/01 07:40:07;;;;;;;0.15;0.15;;;16.10;99.90;;;;;;5101486;27;20079;-68
2023/08/01 07:42:33;;;;;;;0.00;0.00;;;16.00;99.90;;;;;;5102954;27;20075;-68
2023/08/01 07:44:58;;;;;;;0.20;0.20;;;15.90;99.90;;;;;;5114795;27;20082;-68
2023/08/01 07:47:24;;;;;;;0.00;0.00;;;15.80;99.90;;;;;;5128600;27;20466;-68
2023/08/01 07:49:50;;;;;;;1.35;0.22;;;15.80;99.90;;;;;;5095476;28;20501;-69
2023/08/01 07:52:21;;;;;;;0.10;0.10;;;15.60;99.90;;;;;;5130382;27;20134;-67
2023/08/01 07:54:46;;;;;;;0.13;0.13;;;15.60;99.90;;;;;;5095986;28;20045;-68
2023/08/01 07:57:12;;;;;;;0.10;0.10;;;15.60;99.90;;;;;;5144622;27;20496;-68
2023/08/01 07:59:37;;;;;;;0.22;0.20;;;15.60;99.90;;;;;;5133690;27;20477;-67
2023/08/01 08:02:17;;;;;;;0.00;0.00;;;15.60;99.90;;;;;;5114714;27;20035;-68
2023/08/01 08:04:44;;;;;;;0.10;0.10;;;15.60;99.90;;;;;;5113471;27;20557;-71
2023/08/01 08:07:09;;;;;;;0.80;0.55;;;15.60;99.90;;;;;;5102889;28;20118;-68
2023/08/01 08:09:35;;;;;;;0.10;0.10;;;15.60;99.90;;;;;;5103151;28;20134;-69
2023/08/01 08:12:00;;;;;;;0.00;0.00;;;15.60;99.90;;;;;;5101710;28;20047;-69
2023/08/01 08:14:26;;;;;;;0.10;0.10;;;15.50;99.90;;;;;;5116763;27;20081;-69
2023/08/01 08:16:51;;;;;;;0.25;0.20;;;15.50;99.90;;;;;;5106837;27;20043;-69
2023/08/01 08:19:17;;;;;;;0.77;0.68;;;15.50;99.90;;;;;;5099621;27;20173;-68
2023/08/01 08:21:42;;;;;;;1.38;0.10;;;15.50;99.90;;;;;;5120572;27;20091;-68
2023/08/01 08:24:08;;;;;;;0.35;0.28;;;15.50;99.90;;;;;;5111285;27;20043;-67
2023/08/01 08:26:37;;;;;;;2.28;1.80;;;15.50;99.90;;;;;;5102316;27;20071;-69
2023/08/01 08:29:07;;;;;;;0.68;0.20;;;15.60;99.90;;;;;;5095789;28;20519;-67
2023/08/01 08:31:35;;;;;;;0.80;0.70;;;15.60;99.90;;;;;;5109029;27;20043;-69
2023/08/01 08:34:01;;;;;;;0.85;0.85;;;15.60;99.90;;;;;;5126356;27;20544;-70
2023/08/01 08:36:27;;;;;;;0.10;0.10;;;15.70;99.90;;;;;;5117087;27;20122;-69
2023/08/01 08:38:52;;;;;;;0.10;0.10;;;15.70;99.90;;;;;;5110772;28;20046;-68
2023/08/01 08:41:25;;;;;;;0.38;0.38;;;15.70;99.90;;;;;;5112588;27;20039;-69
2023/08/01 08:43:56;;;;;;;0.05;0.05;;;15.80;99.90;;;;;;5109686;28;20031;-68
2023/08/01 08:46:29;;;;;;;1.67;0.30;;;15.90;99.90;;;;;;5126138;27;20043;-70
2023/08/01 08:48:56;;;;;;;0.20;0.20;;;16.00;99.90;;;;;;5139337;27;20444;-69
2023/08/01 08:51:23;;;;;;;0.25;0.25;;;16.10;99.90;;;;;;5101741;28;20064;-71
2023/08/01 08:53:53;;;;;;;0.65;0.40;;;16.10;99.90;;;;;;5123662;28;20114;-70
2023/08/01 08:56:19;;;;;;;0.43;0.43;;;16.10;99.90;;;;;;5138680;27;20043;-70
2023/08/01 08:58:46;;;;;;;0.30;0.30;;;16.00;99.90;;;;;;5086760;28;20408;-73
2023/08/01 09:01:13;;;;;;;0.32;0.15;;;15.80;99.90;;;;;;5097992;28;20152;-70
2023/08/01 09:03:39;;;;;;;0.40;0.40;;;15.70;99.90;;;;;;5096117;28;20036;-72
2023/08/01 09:06:14;;;;;;;0.10;0.10;;;15.50;99.90;;;;;;5101965;28;20138;-70
2023/08/01 09:08:49;;;;;;;2.92;0.63;;;15.40;99.90;;;;;;5096559;27;20035;-72
2023/08/01 09:11:15;;;;;;;0.32;0.30;;;15.20;99.90;;;;;;5136548;27;20440;-72
2023/08/01 09:13:41;;;;;;;0.50;0.20;;;15.00;99.90;;;;;;5103243;27;20042;-71
2023/08/01 09:16:09;;;;;;;0.10;0.10;;;15.00;99.90;;;;;;5104617;27;20130;-71
2023/08/01 09:18:35;;;;;;;0.22;0.22;;;15.00;99.90;;;;;;5143039;27;20145;-71
2023/08/01 09:21:02;;;;;;;0.10;0.10;;;15.00;99.90;;;;;;5100850;27;20122;-70
2023/08/01 09:23:28;;;;;;;0.10;0.10;;;15.00;99.90;;;;;;5100234;27;20424;-68
2023/08/01 09:25:53;;;;;;;0.17;0.17;;;14.90;99.90;;;;;;5103918;27;20038;-71
2023/08/01 09:28:21;;;;;;;0.20;0.20;;;15.00;99.90;;;;;;5139882;27;20046;-72
2023/08/01 09:30:48;;;;;;;0.43;0.43;;;15.00;99.90;;;;;;5108920;27;20397;-70
2023/08/01 09:33:14;;;;;;;0.00;0.00;;;15.10;99.90;;;;;;5099001;27;20126;-76
2023/08/01 09:35:39;;;;;;;0.75;0.30;;;15.20;99.90;;;;;;5102687;28;20043;-70
2023/08/01 09:38:05;;;;;;;0.65;0.65;;;15.20;99.90;;;;;;5083867;28;20035;-71
2023/08/01 09:40:38;;;;;;;0.22;0.22;;;15.20;99.90;;;;;;5105981;27;20042;-68
2023/08/01 09:43:04;;;;;;;0.10;0.10;;;15.30;99.90;;;;;;5102139;28;20036;-70
2023/08/01 09:45:29;;;;;;;0.55;0.25;;;15.30;99.90;;;;;;5098765;27;20051;-70
2023/08/01 09:47:55;;;;;;;0.20;0.20;;;15.30;99.90;;;;;;5099368;27;20050;-67
2023/08/01 09:50:22;;;;;;;0.20;0.20;;;15.30;99.90;;;;;;5105632;27;20047;-70
2023/08/01 09:52:52;;;;;;;0.10;0.10;;;15.30;99.90;;;;;;5103663;27;20084;-68
2023/08/01 09:55:30;;;;;;;2.95;0.55;;;15.30;99.90;;;;;;5098222;27;20123;-72
2023/08/01 09:57:58;;;;;;;0.55;0.55;;;15.40;99.90;;;;;;5108010;27;20050;-68
2023/08/01 10:00:29;;;;;;;0.10;0.10;;;15.40;99.90;;;;;;5108073;27;20045;-69
2023/08/01 10:03:02;;;;;;;0.20;0.20;;;15.30;99.90;;;;;;5105393;27;20434;-67
2023/08/01 10:05:31;;;;;;;0.20;0.10;;;15.40;99.90;;;;;;5107561;27;20052;-71
2023/08/01 10:08:02;;;;;;;0.20;0.20;;;15.40;99.90;;;;;;5109702;27;20051;-69
2023/08/01 10:10:29;;;;;;;0.40;0.40;;;15.40;99.90;;;;;;5110429;27;20039;-68
2023/08/01 10:12:57;;;;;;;0.47;0.47;;;15.50;99.90;;;;;;5104021;27;20127;-69
2023/08/01 10:15:25;;;;;;;0.38;0.20;;;15.70;99.90;;;;;;5100561;27;20035;-68
2023/08/01 10:17:54;;;;;;;0.30;0.20;;;15.80;99.90;;;;;;5107323;27;20085;-69
2023/08/01 10:20:24;;;;;;;0.43;0.17;;;15.90;99.90;;;;;;5105321;27;20338;-68
2023/08/01 10:22:51;;;;;;;0.90;0.85;;;16.40;99.90;;;;;;5089859;28;20032;-68
2023/08/01 10:25:18;;;;;;;0.20;0.20;;;16.60;99.90;;;;;;5108449;27;20057;-69
2023/08/01 10:27:44;;;;;;;0.22;0.22;;;16.90;99.90;;;;;;5105201;28;20123;-67
2023/08/01 10:30:10;;;;;;;0.13;0.13;;;16.90;99.90;;;;;;5112902;27;20518;-67
2023/08/01 10:32:37;;;;;;;0.10;0.10;;;17.00;99.90;;;;;;5113194;27;20461;-70
2023/08/01 10:35:04;;;;;;;0.10;0.10;;;17.30;99.90;;;;;;5108236;27;20092;-68
2023/08/01 10:37:44;;;;;;;0.10;0.10;;;17.30;99.90;;;;;;5099083;27;20059;-69
2023/08/01 10:40:10;;;;;;;0.70;0.20;;;17.20;99.90;;;;;;5123018;27;20122;-69
2023/08/01 10:42:41;;;;;;;0.30;0.30;;;17.10;99.90;;;;;;5102668;27;20039;-71
2023/08/01 10:45:18;;;;;;;0.73;0.73;;;17.30;99.90;;;;;;5109764;27;20039;-69
2023/08/01 10:47:44;;;;;;;0.28;0.28;;;17.30;99.90;;;;;;5103116;27;20497;-72
2023/08/01 10:50:17;;;;;;;0.45;0.45;;;17.00;99.90;;;;;;5103280;27;20108;-72
2023/08/01 10:52:44;;;;;;;0.70;0.25;;;16.60;99.90;;;;;;5110085;27;20385;-71
2023/08/01 10:55:10;;;;;;;0.00;0.00;;;16.30;99.90;;;;;;5096783;27;20030;-70
2023/08/01 10:57:38;;;;;;;0.10;0.10;;;16.10;99.90;;;;;;5112960;27;20537;-69
2023/08/01 11:00:09;;;;;;;0.47;0.47;;;16.00;99.90;;;;;;5107239;27;20032;-69
2023/08/01 11:02:36;;;;;;;0.23;0.23;;;16.00;99.90;;;;;;5112150;27;20062;-72
2023/08/01 11:05:04;;;;;;;1.27;0.30;;;15.90;99.90;;;;;;5115007;27;20039;-68
2023/08/01 11:07:30;;;;;;;1.17;0.50;;;15.90;99.90;;;;;;5096284;27;20084;-71
2023/08/01 11:10:09;;;;;;;0.30;0.30;;;16.00;99.90;;;;;;5110879;27;20042;-71
2023/08/01 11:12:40;;;;;;;0.10;0.10;;;16.10;99.90;;;;;;5100031;27;20039;-73
2023/08/01 11:15:11;;;;;;;1.02;0.25;;;16.10;99.90;;;;;;5119340;27;20031;-72
2023/08/01 11:17:38;;;;;;;0.20;0.20;;;16.20;99.90;;;;;;5097023;27;20125;-74
2023/08/01 11:20:11;;;;;;;0.30;0.25;;;16.10;99.90;;;;;;5113709;27;20035;-69
2023/08/01 11:22:38;;;;;;;0.93;0.10;;;16.10;99.90;;;;;;5112862;27;20485;-71
2023/08/01 11:25:05;;;;;;;0.17;0.17;;;16.20;99.90;;;;;;5106198;27;20043;-72
2023/08/01 11:27:30;;;;;;;1.88;0.13;;;16.40;99.90;;;;;;5106868;27;21867;-67
2023/08/01 11:29:56;;;;;;;0.75;0.13;;;16.70;99.90;;;;;;5114117;27;20043;-70
2023/08/01 11:32:48;;;;;;;0.52;0.52;;;16.80;99.90;;;;;;5100254;27;20050;-69
2023/08/01 11:35:18;;;;;;;0.40;0.40;;;16.80;99.90;;;;;;5107669;27;20051;-72
2023/08/01 11:37:43;;;;;;;0.85;0.40;;;17.00;99.90;;;;;;5114425;27;20050;-73
2023/08/01 11:40:09;;;;;;;0.20;0.20;;;17.10;99.90;;;;;;5123959;27;20027;-72
2023/08/01 11:42:35;;;;;;;0.30;0.30;;;17.10;99.90;;;;;;5112381;27;20126;-72
2023/08/01 11:45:11;;;;;;;0.30;0.30;;;17.20;99.90;;;;;;5101504;28;20547;-69
2023/08/01 11:47:37;;;;;;;0.10;0.10;;;17.20;99.90;;;;;;5102657;27;20051;-73
2023/08/01 11:50:05;;;;;;;0.20;0.20;;;17.00;99.90;;;;;;5105930;27;20035;-71
2023/08/01 11:52:31;;;;;;;0.95;0.95;;;17.00;99.90;;;;;;5127195;27;20050;-71
2023/08/01 11:54:57;;;;;;;0.10;0.10;;;16.90;99.90;;;;;;5093122;28;20416;-71
2023/08/01 11:57:22;;;;;;;0.10;0.10;;;16.80;99.90;;;;;;5094584;27;20039;-73
2023/08/01 11:59:49;;;;;;;0.90;0.73;;;16.60;99.90;;;;;;5118271;27;20047;-74
2023/08/01 12:02:25;;;;;;;0.20;0.20;;;16.60;99.90;;;;;;5107751;27;20114;-73
2023/08/01 12:04:52;;;;;;;0.38;0.35;;;16.70;99.90;;;;;;5093647;28;20146;-69
2023/08/01 12:07:18;;;;;;;0.68;0.60;;;16.90;99.90;;;;;;5101468;27;20074;-74
2023/08/01 12:09:56;;;;;;;0.10;0.10;;;17.20;99.90;;;;;;5099990;27;20100;-70
2023/08/01 12:12:22;;;;;;;1.95;0.20;;;17.40;99.90;;;;;;5105330;27;20047;-72
2023/08/01 12:14:48;;;;;;;2.72;1.05;;;17.40;99.90;;;;;;5109104;27;20069;-71
2023/08/01 12:17:13;;;;;;;0.10;0.10;;;17.30;99.90;;;;;;5120031;27;20090;-71
2023/08/01 12:19:44;;;;;;;0.55;0.15;;;17.40;99.90;;;;;;5110350;27;20046;-69
2023/08/01 12:22:10;;;;;;;1.48;1.23;;;17.40;99.90;;;;;;5118782;27;20487;-69
2023/08/01 12:24:37;;;;;;;0.20;0.20;;;17.50;99.90;;;;;;5109253;28;20103;-72
2023/08/01 12:27:06;;;;;;;0.15;0.15;;;17.90;99.90;;;;;;5111095;27;20083;-70
2023/08/01 12:29:31;;;;;;;0.65;0.65;;;18.20;99.90;;;;;;5112120;28;20096;-69
2023/08/01 12:31:57;;;;;;;0.40;0.40;;;18.60;99.90;;;;;;5113925;27;20042;-70
2023/08/01 12:34:22;;;;;;;0.28;0.28;;;18.80;99.90;;;;;;5127689;27;20039;-70
2023/08/01 12:36:48;;;;;;;0.22;0.22;;;18.90;99.90;;;;;;5125904;27;20392;-69
2023/08/01 12:39:13;;;;;;;0.10;0.10;;;18.80;99.90;;;;;;5105418;27;20038;-69
2023/08/01 12:41:39;;;;;;;0.20;0.10;;;18.70;99.90;;;;;;5113028;28;20035;-70
2023/08/01 12:44:05;;;;;;;0.20;0.20;;;18.60;99.90;;;;;;5115578;27;20075;-71
2023/08/01 12:46:31;;;;;;;1.13;0.70;;;18.50;99.90;;;;;;5113440;28;20035;-70